Time;durP1;ratioP1;P1;durP2;ratioP2;P2;SDS_P1;SDS_P2;PMS_P1;PMS_P2;Temp;Humidity;BMP_temperature;BMP_pressure;BME280_temperature;BME280_humidity;BME280_pressure;Samples;Min_cycle;Max_cycle;Signal;HPM_P1;HPM_P2
2022/05/12 00:02:00;;;;;;;0.50;0.50;;;;;;;6.79;47.37;98257.09;4918228;29;20230;-89
2022/05/12 00:04:32;;;;;;;0.50;0.50;;;;;;;6.92;47.14;98264.88;4868976;29;20551;-88
2022/05/12 00:06:59;;;;;;;0.50;0.50;;;;;;;6.86;45.78;98244.38;4917632;29;20524;-88
2022/05/12 00:09:27;;;;;;;0.50;0.50;;;;;;;6.93;46.12;98261.13;4917823;29;20563;-88
2022/05/12 00:11:54;;;;;;;0.50;0.50;;;;;;;6.89;47.38;98265.34;4916977;29;20056;-89
2022/05/12 00:14:23;;;;;;;0.50;0.50;;;;;;;6.63;47.61;98239.88;4900091;29;20543;-88
2022/05/12 00:16:50;;;;;;;0.50;0.50;;;;;;;6.63;47.90;98255.97;4916784;29;20044;-88
2022/05/12 00:19:18;;;;;;;0.50;0.50;;;;;;;6.64;46.85;98272.88;4917092;29;20111;-88
2022/05/12 00:21:45;;;;;;;0.40;0.40;;;;;;;6.55;46.40;98252.84;4900224;29;20048;-88
2022/05/12 00:24:16;;;;;;;0.50;0.50;;;;;;;6.71;45.26;98262.84;4917631;29;20055;-89
2022/05/12 00:26:43;;;;;;;0.50;0.50;;;;;;;6.81;47.07;98262.22;4916456;29;20056;-88
2022/05/12 00:29:11;;;;;;;0.40;0.40;;;;;;;6.68;47.01;98241.84;4915842;29;20107;-87
2022/05/12 00:31:40;;;;;;;0.40;0.40;;;;;;;6.79;48.67;98262.47;4899577;29;20154;-88
2022/05/12 00:34:08;;;;;;;0.40;0.40;;;;;;;6.75;47.01;98261.31;4917405;29;20499;-89
2022/05/12 00:36:41;;;;;;;0.40;0.40;;;;;;;6.73;46.68;98234.75;4899680;29;20071;-90
2022/05/12 00:39:08;;;;;;;0.40;0.40;;;;;;;6.82;45.32;98243.22;4917570;29;20494;-89
2022/05/12 00:41:36;;;;;;;0.50;0.50;;;;;;;6.93;45.32;98247.69;4885869;29;20059;-89
2022/05/12 00:44:06;;;;;;;0.40;0.40;;;;;;;6.92;44.13;98246.09;4917006;29;20048;-89
2022/05/12 00:46:37;;;;;;;0.40;0.40;;;;;;;6.89;47.43;98237.72;4900081;29;20087;-88
2022/05/12 00:49:27;;;;;;;0.50;0.50;;;;;;;6.88;47.23;98231.50;4917723;29;20119;-89
2022/05/12 00:52:07;;;;;;;0.40;0.40;;;;;;;6.94;45.54;98238.63;4887341;29;20087;-88
2022/05/12 00:54:56;;;;;;;0.50;0.50;;;;;;;6.73;48.04;98218.66;4919894;29;20074;-90
2022/05/12 00:57:29;;;;;;;0.52;0.52;;;;;;;6.74;48.56;98235.53;4900515;29;20107;-88
2022/05/12 00:59:59;;;;;;;0.43;0.43;;;;;;;6.59;48.79;98221.84;4884085;29;20095;-89
2022/05/12 01:02:28;;;;;;;0.47;0.47;;;;;;;6.47;47.20;98220.00;4867447;29;20056;-89
2022/05/12 01:04:57;;;;;;;0.47;0.47;;;;;;;6.61;46.43;98233.13;4898813;29;20055;-89
2022/05/12 01:07:24;;;;;;;0.50;0.50;;;;;;;6.61;44.68;98223.22;4899739;29;20590;-89
2022/05/12 01:09:52;;;;;;;0.50;0.50;;;;;;;7.09;43.54;98226.53;4916585;29;20616;-88
2022/05/12 01:12:20;;;;;;;0.40;0.40;;;;;;;7.11;42.53;98198.38;4900288;29;20111;-89
2022/05/12 01:14:47;;;;;;;0.40;0.40;;;;;;;7.44;43.00;98206.72;4899515;29;20051;-90
2022/05/12 01:17:14;;;;;;;0.50;0.50;;;;;;;7.43;42.75;98215.84;4907173;29;20087;-89
2022/05/12 01:19:41;;;;;;;0.40;0.40;;;;;;;7.41;43.97;98207.22;4923522;29;20115;-89
2022/05/12 01:22:13;;;;;;;0.50;0.50;;;;;;;7.31;43.54;98216.72;4939271;29;20107;-90
2022/05/12 01:24:45;;;;;;;0.50;0.50;;;;;;;7.33;44.88;98222.66;4897881;29;20059;-90
2022/05/12 01:27:22;;;;;;;0.45;0.45;;;;;;;7.35;43.49;98199.09;4916976;29;20051;-90
2022/05/12 01:29:55;;;;;;;0.40;0.40;;;;;;;7.21;46.84;98192.38;4898724;29;20143;-87
2022/05/12 01:32:27;;;;;;;0.43;0.43;;;;;;;7.26;44.74;98213.94;4915239;29;20051;-88
2022/05/12 01:34:55;;;;;;;0.50;0.50;;;;;;;7.25;45.47;98216.91;4916019;29;20056;-88
2022/05/12 01:37:22;;;;;;;0.50;0.50;;;;;;;7.34;44.01;98197.47;4899545;29;20052;-91
2022/05/12 01:39:50;;;;;;;0.50;0.50;;;;;;;7.62;42.85;98208.34;4915454;29;20095;-90
2022/05/12 01:42:19;;;;;;;0.50;0.50;;;;;;;7.91;42.31;98212.56;4915415;29;20086;-90
2022/05/12 01:44:46;;;;;;;0.50;0.50;;;;;;;7.90;41.88;98200.22;4883555;29;20052;-90
2022/05/12 01:47:14;;;;;;;0.50;0.50;;;;;;;8.03;42.02;98205.22;4899144;29;20052;-91
2022/05/12 01:49:41;;;;;;;0.50;0.50;;;;;;;8.04;42.35;98201.47;4913799;29;20066;-88
2022/05/12 01:52:10;;;;;;;0.40;0.40;;;;;;;8.05;42.41;98218.41;4898882;29;20071;-90
2022/05/12 01:54:37;;;;;;;0.40;0.40;;;;;;;7.95;42.79;98220.94;4883312;29;20579;-89
2022/05/12 01:57:05;;;;;;;0.40;0.40;;;;;;;7.80;42.83;98203.56;4915689;29;20054;-90
2022/05/12 01:59:32;;;;;;;0.50;0.50;;;;;;;8.01;42.96;98222.66;4916449;29;20052;-89
2022/05/12 02:01:59;;;;;;;0.50;0.50;;;;;;;7.93;42.68;98212.34;4916243;29;20542;-91
2022/05/12 02:04:27;;;;;;;0.50;0.50;;;;;;;7.75;43.12;98192.75;4915395;29;20086;-91
2022/05/12 02:06:54;;;;;;;0.50;0.50;;;;;;;7.76;43.53;98204.28;4898328;29;20048;-91
2022/05/12 02:09:21;;;;;;;0.50;0.50;;;;;;;7.84;43.62;98222.66;4898516;29;20511;-91
2022/05/12 02:11:48;;;;;;;0.50;0.50;;;;;;;7.79;43.51;98207.28;4898633;29;20052;-90
2022/05/12 02:14:15;;;;;;;0.50;0.50;;;;;;;7.86;43.67;98201.75;4915511;29;20139;-89
2022/05/12 02:16:43;;;;;;;0.50;0.50;;;;;;;7.86;44.08;98203.63;4915354;29;20071;-91
2022/05/12 02:19:11;;;;;;;0.40;0.40;;;;;;;7.88;44.05;98209.56;4883362;29;20048;-90
2022/05/12 02:21:38;;;;;;;0.50;0.50;;;;;;;7.90;44.29;98196.69;4867523;29;20055;-91
2022/05/12 02:24:06;;;;;;;0.50;0.50;;;;;;;8.11;44.24;98212.06;4915879;29;20058;-90
2022/05/12 02:26:33;;;;;;;0.50;0.50;;;;;;;8.05;43.92;98202.28;4898489;29;20203;-90
2022/05/12 02:29:01;;;;;;;0.50;0.50;;;;;;;8.12;44.59;98202.13;4897934;29;20060;-89
2022/05/12 02:31:28;;;;;;;0.50;0.50;;;;;;;8.08;44.88;98204.50;4882869;29;20051;-91
2022/05/12 02:33:55;;;;;;;0.50;0.50;;;;;;;7.95;44.86;98189.53;4914938;29;20052;-91
2022/05/12 02:36:22;;;;;;;0.50;0.50;;;;;;;7.98;44.87;98199.78;4915296;29;20079;-90
2022/05/12 02:38:51;;;;;;;0.50;0.50;;;;;;;8.08;44.71;98206.34;4914884;29;20080;-90
2022/05/12 02:41:18;;;;;;;0.50;0.50;;;;;;;8.14;44.38;98202.69;4851749;29;20103;-89
2022/05/12 02:43:45;;;;;;;0.50;0.50;;;;;;;8.18;44.73;98212.69;4898982;29;20472;-92
2022/05/12 02:46:14;;;;;;;0.50;0.50;;;;;;;8.20;45.21;98218.63;4902518;29;20070;-90
2022/05/12 02:48:43;;;;;;;0.50;0.50;;;;;;;8.29;45.13;98210.94;4933371;29;20046;-90
2022/05/12 02:51:12;;;;;;;0.50;0.50;;;;;;;8.35;45.29;98215.31;4934422;29;20503;-90
2022/05/12 02:53:40;;;;;;;0.50;0.50;;;;;;;8.37;45.27;98215.88;4924747;29;20067;-91
2022/05/12 02:56:07;;;;;;;0.47;0.47;;;;;;;8.25;45.43;98207.97;4919661;29;20535;-94
2022/05/12 02:58:35;;;;;;;0.50;0.50;;;;;;;8.35;45.75;98209.94;4887982;29;20139;-92
2022/05/12 03:01:05;;;;;;;0.50;0.50;;;;;;;8.22;45.82;98188.81;4918704;29;20464;-90
2022/05/12 03:03:32;;;;;;;0.40;0.40;;;;;;;8.31;46.00;98190.00;4909388;29;20056;-90
2022/05/12 03:05:59;;;;;;;0.50;0.50;;;;;;;8.40;46.05;98206.53;4917678;29;20511;-92
2022/05/12 03:08:27;;;;;;;0.50;0.50;;;;;;;8.46;46.10;98192.13;4917390;29;20056;-91
2022/05/12 03:10:54;;;;;;;0.50;0.50;;;;;;;8.45;46.05;98183.22;4920253;29;20064;-92
2022/05/12 03:13:23;;;;;;;0.50;0.50;;;;;;;8.59;45.60;98191.72;4888122;29;20060;-92
2022/05/12 03:15:50;;;;;;;0.50;0.50;;;;;;;8.69;45.58;98180.28;4902379;29;20054;-92
2022/05/12 03:18:18;;;;;;;0.50;0.50;;;;;;;8.77;45.78;98189.78;4903454;29;20048;-91
2022/05/12 03:20:46;;;;;;;0.50;0.50;;;;;;;8.87;46.06;98187.19;4873144;29;20048;-90
2022/05/12 03:23:17;;;;;;;0.50;0.50;;;;;;;8.90;46.03;98190.16;4905245;29;20100;-92
2022/05/12 03:25:44;;;;;;;0.50;0.50;;;;;;;8.88;45.95;98183.41;4920216;29;20051;-92
2022/05/12 03:28:11;;;;;;;0.50;0.50;;;;;;;8.82;46.08;98157.53;4902597;29;20055;-92
2022/05/12 03:30:39;;;;;;;0.50;0.50;;;;;;;8.90;46.36;98168.66;4903060;29;20059;-93
2022/05/12 03:33:07;;;;;;;0.50;0.50;;;;;;;8.95;46.06;98161.69;4888734;29;20526;-93
2022/05/12 03:35:34;;;;;;;0.50;0.50;;;;;;;9.07;46.24;98165.84;4903236;29;20060;-93
2022/05/12 03:38:02;;;;;;;0.50;0.50;;;;;;;9.11;46.58;98166.97;4903779;29;20055;-94
2022/05/12 03:40:33;;;;;;;0.50;0.50;;;;;;;9.02;46.61;98148.84;4940006;29;20427;-93
2022/05/12 03:43:00;;;;;;;0.50;0.50;;;;;;;9.05;46.77;98151.03;4908403;29;20055;-94
2022/05/12 03:45:29;;;;;;;0.43;0.43;;;;;;;9.11;47.49;98160.75;4924551;29;20056;-94
2022/05/12 03:47:57;;;;;;;0.50;0.50;;;;;;;9.17;46.81;98183.19;4903421;29;20056;-92
2022/05/12 03:50:26;;;;;;;0.40;0.40;;;;;;;9.15;46.79;98193.38;4902015;29;20083;-92
2022/05/12 03:52:55;;;;;;;0.40;0.40;;;;;;;9.13;47.21;98193.63;4903362;29;20052;-94
2022/05/12 03:55:26;;;;;;;0.40;0.40;;;;;;;9.07;47.49;98184.69;4919196;29;20116;-93
2022/05/12 03:57:55;;;;;;;0.50;0.50;;;;;;;9.03;47.30;98186.25;4919407;29;20052;-92
2022/05/12 04:00:29;;;;;;;0.40;0.40;;;;;;;9.17;47.27;98196.63;4887515;29;20160;-92
2022/05/12 04:02:56;;;;;;;0.40;0.40;;;;;;;9.21;47.06;98197.72;4903209;29;20081;-92
2022/05/12 04:05:24;;;;;;;0.47;0.47;;;;;;;9.22;47.02;98183.22;4930789;29;20063;-92
2022/05/12 04:07:53;;;;;;;0.50;0.50;;;;;;;9.22;47.10;98191.31;4916227;29;20040;-91
2022/05/12 04:10:21;;;;;;;0.45;0.45;;;;;;;9.25;46.99;98193.47;4934495;29;20036;-91
2022/05/12 04:12:49;;;;;;;0.50;0.50;;;;;;;9.35;47.07;98193.56;4924888;29;20060;-95
2022/05/12 04:15:17;;;;;;;0.43;0.43;;;;;;;9.29;46.74;98162.25;4909263;29;20063;-92
2022/05/12 04:17:47;;;;;;;0.50;0.50;;;;;;;9.32;46.65;98156.38;4896881;29;20048;-92
2022/05/12 04:20:15;;;;;;;0.50;0.50;;;;;;;9.51;46.71;98184.53;4873756;29;20065;-92
2022/05/12 04:22:43;;;;;;;0.40;0.40;;;;;;;9.59;46.89;98177.84;4925884;29;20107;-94
2022/05/12 04:25:26;;;;;;;0.50;0.50;;;;;;;9.60;46.80;98147.16;4906029;29;20131;-91
2022/05/12 04:27:53;;;;;;;0.40;0.40;;;;;;;9.80;46.79;98165.34;4890003;29;20059;-94
2022/05/12 04:30:24;;;;;;;0.50;0.50;;;;;;;9.90;46.41;98168.13;4891490;29;20044;-93
2022/05/12 04:32:55;;;;;;;0.40;0.40;;;;;;;10.01;46.34;98168.97;4907776;29;20076;-92
2022/05/12 04:35:23;;;;;;;0.50;0.50;;;;;;;10.08;46.24;98168.75;4904899;29;20051;-94
2022/05/12 04:37:54;;;;;;;0.40;0.40;;;;;;;10.00;45.93;98151.16;4888971;29;20055;-94
2022/05/12 04:40:30;;;;;;;0.50;0.50;;;;;;;9.97;46.40;98136.31;4894583;29;20048;-94
2022/05/12 04:42:59;;;;;;;0.40;0.40;;;;;;;10.09;47.18;98149.59;4899753;29;20066;-93
2022/05/12 04:45:30;;;;;;;0.40;0.40;;;;;;;10.02;46.72;98126.66;4891535;29;20052;-93
2022/05/12 04:47:58;;;;;;;0.47;0.47;;;;;;;10.15;46.64;98136.94;4926353;29;20115;-94
2022/05/12 04:50:29;;;;;;;0.50;0.50;;;;;;;10.26;46.76;98127.84;4877879;29;20088;-95
2022/05/12 04:52:56;;;;;;;0.50;0.50;;;;;;;10.40;46.09;98131.69;4892889;29;20060;-96
2022/05/12 04:55:25;;;;;;;0.40;0.40;;;;;;;10.37;46.24;98129.53;4889352;29;20052;-93
2022/05/12 04:57:56;;;;;;;0.40;0.40;;;;;;;10.41;46.84;98137.91;4889898;29;20386;-94
2022/05/12 05:00:44;;;;;;;0.50;0.50;;;;;;;10.45;46.92;98138.19;4874703;29;20055;-93
2022/05/12 05:03:14;;;;;;;0.40;0.40;;;;;;;10.32;46.72;98123.31;4877513;29;20052;-93
2022/05/12 05:05:48;;;;;;;0.40;0.40;;;;;;;10.20;47.19;98115.41;4891146;29;20048;-92
2022/05/12 05:08:19;;;;;;;0.40;0.40;;;;;;;10.29;47.21;98131.94;4903086;29;20067;-93
2022/05/12 05:10:47;;;;;;;0.40;0.40;;;;;;;10.43;47.92;98151.13;4918539;29;20078;-93
2022/05/12 05:13:15;;;;;;;0.50;0.50;;;;;;;10.33;47.86;98139.25;4918318;29;20059;-93
2022/05/12 05:15:43;;;;;;;0.50;0.50;;;;;;;10.39;47.51;98126.56;4872331;29;20048;-94
2022/05/12 05:18:12;;;;;;;0.40;0.40;;;;;;;10.54;47.41;98140.13;4902394;29;20131;-95
2022/05/12 05:20:39;;;;;;;0.40;0.40;;;;;;;10.48;47.39;98125.00;4890268;29;20469;-95
2022/05/12 05:23:07;;;;;;;0.40;0.40;;;;;;;10.48;47.63;98126.88;4882243;29;20044;-94
2022/05/12 05:25:35;;;;;;;0.40;0.40;;;;;;;10.41;47.90;98114.44;4887148;29;20057;-94
2022/05/12 05:28:10;;;;;;;0.50;0.50;;;;;;;10.35;48.50;98115.50;4878973;29;20059;-94
2022/05/12 05:30:41;;;;;;;0.40;0.40;;;;;;;10.43;48.52;98126.84;4910384;29;20060;-95
2022/05/12 05:33:09;;;;;;;0.40;0.40;;;;;;;10.23;48.79;98090.63;4890571;29;20068;-91
2022/05/12 05:35:36;;;;;;;0.40;0.40;;;;;;;10.46;48.89;98119.06;4886063;29;20418;-94
2022/05/12 05:38:05;;;;;;;0.50;0.50;;;;;;;10.49;48.95;98098.81;4873432;29;20052;-92
2022/05/12 05:40:35;;;;;;;0.60;0.60;;;;;;;10.97;48.78;98121.03;4904516;29;20519;-94
2022/05/12 05:43:05;;;;;;;0.50;0.50;;;;;;;11.23;47.90;98102.94;4873401;29;20044;-92
2022/05/12 05:45:33;;;;;;;0.50;0.50;;;;;;;11.54;47.29;98098.31;4893123;29;20528;-92
2022/05/12 05:48:07;;;;;;;0.50;0.50;;;;;;;11.80;46.67;98090.16;4854522;29;20120;-92
2022/05/12 05:53:38;;;;;;;0.50;0.50;;;;;;;12.71;45.10;98098.97;4866895;29;20100;-95
2022/05/12 05:56:12;;;;;;;0.50;0.50;;;;;;;13.16;44.49;98105.16;4888979;29;20081;-91
2022/05/12 05:58:40;;;;;;;0.60;0.60;;;;;;;13.80;43.27;98100.53;4884787;29;20053;-93
2022/05/12 06:01:18;;;;;;;0.50;0.50;;;;;;;14.12;42.65;98101.81;4844430;29;20054;-93
2022/05/12 06:03:59;;;;;;;0.40;0.40;;;;;;;14.12;43.09;98109.97;4863346;29;20072;-93
2022/05/12 06:06:27;;;;;;;0.50;0.50;;;;;;;13.84;43.55;98091.53;5092390;23;20047;-93
2022/05/12 06:08:54;;;;;;;0.50;0.50;;;;;;;13.96;44.03;98102.00;4847818;29;20549;-89
2022/05/12 06:11:28;;;;;;;0.50;0.50;;;;;;;14.12;43.62;98089.06;4834969;29;20082;-89
2022/05/12 06:13:56;;;;;;;0.40;0.40;;;;;;;14.22;43.72;98093.56;4869474;29;20072;-92
2022/05/12 06:16:23;;;;;;;0.40;0.40;;;;;;;14.23;43.82;98090.56;4841417;29;20064;-93
2022/05/12 06:18:51;;;;;;;0.40;0.40;;;;;;;14.13;44.01;98079.84;4833578;29;20066;-93
2022/05/12 06:21:18;;;;;;;0.40;0.40;;;;;;;14.25;44.21;98077.50;4840692;23;20046;-87
2022/05/12 06:23:46;;;;;;;0.50;0.50;;;;;;;14.40;43.76;98078.41;4852907;23;20054;-92
2022/05/12 06:26:39;;;;;;;0.50;0.50;;;;;;;14.43;43.86;98080.53;4884712;29;20044;-95
2022/05/12 06:29:06;;;;;;;0.40;0.40;;;;;;;14.51;43.84;98088.84;4887735;29;20112;-93
2022/05/12 06:31:36;;;;;;;0.40;0.40;;;;;;;14.42;44.42;98066.16;4902421;29;20520;-95
2022/05/12 06:34:05;;;;;;;0.50;0.50;;;;;;;14.56;43.79;98065.44;4897903;29;20069;-91
2022/05/12 06:36:33;;;;;;;0.50;0.50;;;;;;;15.13;43.03;98077.09;4916673;29;20052;-94
2022/05/12 06:39:06;;;;;;;0.50;0.50;;;;;;;15.48;42.50;98070.25;4917744;29;20100;-94
2022/05/12 06:41:34;;;;;;;0.40;0.40;;;;;;;15.52;41.78;98067.72;4849216;29;20061;-94
2022/05/12 06:44:02;;;;;;;0.40;0.40;;;;;;;15.45;41.92;98061.88;4847848;29;20057;-94
2022/05/12 06:46:30;;;;;;;0.40;0.40;;;;;;;15.31;41.92;98064.56;4833562;29;20053;-93
2022/05/12 06:48:58;;;;;;;0.40;0.40;;;;;;;15.33;41.74;98033.25;4858614;29;20143;-88
2022/05/12 06:51:25;;;;;;;0.40;0.40;;;;;;;15.63;41.49;98066.44;4876409;29;20163;-90
2022/05/12 06:53:52;;;;;;;0.40;0.40;;;;;;;15.78;40.56;98068.09;4875722;29;20065;-90
2022/05/12 06:56:20;;;;;;;0.50;0.50;;;;;;;15.92;40.14;98063.44;4860677;29;20053;-89
2022/05/12 06:58:48;;;;;;;0.40;0.40;;;;;;;16.04;40.20;98060.25;4876646;29;20049;-87
2022/05/12 07:01:16;;;;;;;0.40;0.40;;;;;;;16.25;39.72;98063.34;4876962;29;20049;-88
2022/05/12 07:03:43;;;;;;;0.40;0.40;;;;;;;16.31;39.31;98055.91;4878424;29;20142;-88
2022/05/12 07:06:10;;;;;;;0.50;0.50;;;;;;;16.53;38.97;98061.38;4866987;29;20106;-89
2022/05/12 07:08:41;;;;;;;0.50;0.50;;;;;;;16.87;38.63;98049.19;4858313;29;20147;-89
2022/05/12 07:11:10;;;;;;;0.40;0.40;;;;;;;17.43;37.99;98055.19;4861337;29;20061;-88
2022/05/12 07:13:37;;;;;;;0.40;0.40;;;;;;;17.61;37.84;98029.59;4879245;29;20059;-90
2022/05/12 07:16:05;;;;;;;0.40;0.40;;;;;;;17.51;37.45;98019.75;4863361;29;20220;-89
2022/05/12 07:18:34;;;;;;;0.40;0.40;;;;;;;17.76;37.53;98031.91;4879406;29;20053;-88
2022/05/12 07:26:49;;;;;;;0.40;0.40;;;;;;;17.97;37.38;98037.63;4877886;29;20049;-89
2022/05/12 07:29:20;;;;;;;0.40;0.40;;;;;;;17.95;37.78;98022.69;4878747;29;20045;-89
2022/05/12 07:31:48;;;;;;;0.40;0.40;;;;;;;18.00;37.78;98021.72;4846307;29;20065;-89
2022/05/12 07:34:17;;;;;;;0.40;0.40;;;;;;;18.38;37.66;98027.44;4877993;29;20099;-89
2022/05/12 07:36:50;;;;;;;0.40;0.40;;;;;;;19.15;36.42;98008.63;4877810;29;20056;-89
2022/05/12 07:39:22;;;;;;;0.40;0.40;;;;;;;19.34;35.98;98017.25;4881035;29;20059;-89
2022/05/12 07:41:50;;;;;;;0.30;0.30;;;;;;;18.86;36.11;97992.91;4882211;29;20053;-90
2022/05/12 07:44:19;;;;;;;0.30;0.30;;;;;;;18.48;36.50;97997.06;4881397;29;20059;-89
2022/05/12 07:46:47;;;;;;;0.50;0.50;;;;;;;18.81;36.64;97991.13;4880661;29;20048;-90
2022/05/12 07:49:15;;;;;;;0.40;0.40;;;;;;;19.08;36.74;97975.50;4864146;29;20405;-89
2022/05/12 07:51:47;;;;;;;0.40;0.40;;;;;;;19.26;36.24;97988.00;4879085;29;20508;-88
2022/05/12 07:54:14;;;;;;;0.30;0.30;;;;;;;19.10;35.89;97970.53;4880612;29;20049;-90
2022/05/12 07:56:42;;;;;;;0.30;0.30;;;;;;;18.40;36.97;97993.22;4881067;29;20061;-90
2022/05/12 07:59:09;;;;;;;0.50;0.50;;;;;;;18.33;37.29;97990.16;4879887;29;20049;-89
2022/05/12 08:02:27;;;;;;;0.40;0.40;;;;;;;18.83;36.91;97975.22;4879548;29;20424;-89
2022/05/12 08:05:04;;;;;;;0.40;0.40;;;;;;;19.34;36.82;97980.91;4880242;29;20521;-89
2022/05/12 08:07:32;;;;;;;0.40;0.40;;;;;;;19.59;36.00;97973.72;4874679;29;20129;-89
2022/05/12 08:10:01;;;;;;;0.40;0.40;;;;;;;19.88;35.71;97959.28;4872507;29;20049;-89
2022/05/12 08:12:30;;;;;;;0.40;0.40;;;;;;;19.94;35.83;97952.47;4889914;29;20080;-86
2022/05/12 08:14:57;;;;;;;0.40;0.40;;;;;;;19.88;36.23;97968.31;4883345;29;20060;-89
2022/05/12 08:17:24;;;;;;;0.40;0.40;;;;;;;19.59;36.21;97960.03;4869777;29;20077;-90
2022/05/12 08:19:52;;;;;;;0.50;0.50;;;;;;;19.56;36.59;97944.28;4885877;29;20059;-89
2022/05/12 08:22:19;;;;;;;0.32;0.32;;;;;;;19.68;36.60;97941.69;4882378;29;20063;-91
2022/05/12 08:24:46;;;;;;;0.40;0.40;;;;;;;19.86;36.86;97950.59;4882547;29;20077;-89
2022/05/12 08:27:14;;;;;;;0.40;0.40;;;;;;;20.16;36.21;97967.81;4895750;29;20054;-89
2022/05/12 08:29:43;;;;;;;0.40;0.40;;;;;;;19.75;36.79;97941.97;4880423;29;20051;-90
2022/05/12 08:32:11;;;;;;;0.50;0.50;;;;;;;20.50;36.13;97930.31;4893633;29;20077;-88
2022/05/12 08:34:38;;;;;;;0.30;0.30;;;;;;;21.04;35.36;97935.78;4901332;29;20053;-89
2022/05/12 08:37:05;;;;;;;0.30;0.30;;;;;;;20.83;36.45;97937.78;4894205;29;20068;-88
2022/05/12 08:40:15;;;;;;;0.30;0.30;;;;;;;20.04;38.10;97951.28;4879575;29;20548;-90
2022/05/12 08:42:44;;;;;;;0.30;0.30;;;;;;;19.94;38.15;97962.63;4848949;29;20105;-92
2022/05/12 08:45:14;;;;;;;0.30;0.30;;;;;;;19.33;39.04;97924.59;4859285;29;20073;-92
2022/05/12 08:48:26;;;;;;;0.50;0.50;;;;;;;19.83;38.89;97941.13;4860193;29;20081;-91
2022/05/12 08:51:10;;;;;;;0.70;0.70;;;;;;;21.20;36.76;97931.25;4844249;29;20113;-90
2022/05/12 08:53:44;;;;;;;0.70;0.70;;;;;;;21.38;36.33;97914.56;4828877;29;20430;-89
2022/05/12 08:56:12;;;;;;;0.70;0.70;;;;;;;21.89;35.55;97906.00;4844035;29;20140;-90
2022/05/12 08:58:41;;;;;;;0.60;0.60;;;;;;;22.07;35.36;97921.88;4828182;29;20153;-88
2022/05/12 09:01:38;;;;;;;0.32;0.32;;;;;;;21.13;35.89;97889.06;4860371;29;20049;-90
2022/05/12 09:04:16;;;;;;;0.40;0.40;;;;;;;20.42;36.56;97918.28;4859610;29;20050;-89
2022/05/12 09:07:05;;;;;;;0.60;0.60;;;;;;;20.95;35.49;97915.88;4858437;29;20181;-89
2022/05/12 09:09:39;;;;;;;0.70;0.70;;;;;;;21.56;33.16;97915.19;4859602;29;20201;-89
2022/05/12 09:12:12;;;;;;;0.40;0.40;;;;;;;21.51;34.21;97909.91;4843366;29;20064;-90
2022/05/12 09:14:54;;;;;;;0.40;0.40;;;;;;;20.51;35.11;97905.31;4878756;29;20060;-90
2022/05/12 09:17:29;;;;;;;0.40;0.40;;;;;;;20.66;35.98;97919.53;4878395;29;20064;-89
2022/05/12 09:20:00;;;;;;;0.70;0.70;;;;;;;21.58;34.14;97908.19;4879494;29;20055;-90
2022/05/12 09:22:29;;;;;;;0.30;0.30;;;;;;;21.28;34.35;97917.75;4879040;29;20083;-89
2022/05/12 09:24:57;;;;;;;0.60;0.60;;;;;;;20.42;35.57;97907.31;4879395;29;20053;-88
2022/05/12 09:27:34;;;;;;;0.70;0.70;;;;;;;21.38;34.39;97896.19;4881207;29;20063;-88
2022/05/12 09:30:04;;;;;;;0.70;0.70;;;;;;;21.82;34.15;97879.09;4893976;29;20075;-91
2022/05/12 09:32:34;;;;;;;0.60;0.60;;;;;;;22.50;33.09;97881.91;4878341;29;20108;-91
2022/05/12 09:35:12;;;;;;;0.60;0.60;;;;;;;23.34;32.09;97900.22;4879265;29;20044;-89
2022/05/12 09:37:42;;;;;;;0.60;0.60;;;;;;;23.58;31.76;97896.50;4878077;29;20049;-90
2022/05/12 09:40:34;;;;;;;0.60;0.60;;;;;;;23.65;31.66;97889.53;4879005;29;20053;-89
2022/05/12 09:43:26;;;;;;;0.65;0.65;;;;;;;23.65;31.40;97901.38;4877788;29;20057;-89
2022/05/12 09:46:04;;;;;;;0.30;0.30;;;;;;;22.98;32.61;97868.28;4872358;29;20138;-89
2022/05/12 09:48:35;;;;;;;0.40;0.40;;;;;;;22.18;33.29;97883.72;4879144;29;20064;-91
2022/05/12 09:51:29;;;;;;;0.68;0.68;;;;;;;22.62;33.39;97885.75;4893136;29;20140;-89
2022/05/12 09:54:28;;;;;;;0.45;0.45;;;;;;;23.04;32.56;97893.56;4878369;29;20060;-90
2022/05/12 09:56:57;;;;;;;0.50;0.50;;;;;;;22.72;33.01;97880.53;4878054;29;20053;-89
2022/05/12 09:59:27;;;;;;;0.65;0.65;;;;;;;23.39;31.93;97890.91;4877588;29;20045;-90
2022/05/12 10:02:00;;;;;;;0.40;0.40;;;;;;;23.02;32.35;97873.88;4878263;29;20056;-90
2022/05/12 10:10:18;;;;;;;0.50;0.50;;;;;;;23.50;31.66;97849.88;4890711;29;20049;-91
2022/05/12 10:12:58;;;;;;;0.57;0.57;;;;;;;22.56;30.43;97862.41;4862395;29;20061;-90
2022/05/12 10:15:35;;;;;;;0.50;0.50;;;;;;;22.15;31.15;97869.88;4877580;29;20049;-90
2022/05/12 10:18:08;;;;;;;0.80;0.80;;;;;;;22.63;30.94;97862.59;4877247;29;20056;-91
2022/05/12 10:20:41;;;;;;;0.57;0.57;;;;;;;23.81;28.41;97879.34;4892863;29;20148;-91
2022/05/12 10:23:32;;;;;;;0.80;0.80;;;;;;;23.57;28.79;97863.78;4878603;29;20049;-89
2022/05/12 10:26:21;;;;;;;0.60;0.60;;;;;;;23.63;28.88;97831.28;4879147;29;20064;-92
2022/05/12 10:29:02;;;;;;;0.45;0.45;;;;;;;23.24;29.68;97859.47;4862537;29;20053;-89
2022/05/12 10:32:04;;;;;;;0.30;0.30;;;;;;;22.77;30.01;97841.00;4877951;29;20099;-91
2022/05/12 10:34:37;;;;;;;0.40;0.40;;;;;;;21.88;31.89;97839.28;4878505;29;20067;-91
2022/05/12 10:37:14;;;;;;;0.40;0.40;;;;;;;21.51;32.83;97833.84;4878586;29;20144;-91
2022/05/12 10:39:53;;;;;;;0.55;0.55;;;;;;;21.84;32.18;97830.94;4878802;29;20151;-90
2022/05/12 10:42:53;;;;;;;0.70;0.70;;;;;;;23.53;30.01;97829.91;4877118;29;20057;-91
2022/05/12 10:45:57;;;;;;;0.80;0.80;;;;;;;24.23;28.28;97840.88;4878223;29;20422;-90
2022/05/12 10:48:59;;;;;;;0.70;0.70;;;;;;;24.50;27.94;97812.66;4874089;29;20406;-91
2022/05/12 10:51:57;;;;;;;0.80;0.80;;;;;;;24.96;27.16;97794.13;4861608;29;20049;-89
2022/05/12 10:54:36;;;;;;;0.70;0.70;;;;;;;24.77;27.62;97802.50;4892175;29;20053;-89
2022/05/12 10:57:34;;;;;;;0.70;0.70;;;;;;;24.76;28.18;97795.38;4876929;29;20536;-91
2022/05/12 11:00:06;;;;;;;0.60;0.60;;;;;;;25.36;27.47;97797.56;4876958;29;20067;-91
2022/05/12 11:02:45;;;;;;;0.60;0.60;;;;;;;25.19;28.05;97780.34;4862593;29;20052;-92
2022/05/12 11:05:22;;;;;;;0.60;0.60;;;;;;;25.32;28.02;97805.81;4877501;29;20053;-89
2022/05/12 11:07:54;;;;;;;0.60;0.60;;;;;;;25.78;27.86;97796.59;4861603;29;20097;-90
2022/05/12 11:10:29;;;;;;;0.60;0.60;;;;;;;25.64;27.13;97809.00;4862056;29;20101;-91
2022/05/12 11:13:40;;;;;;;0.50;0.50;;;;;;;25.42;26.71;97788.59;4879042;29;20491;-91
2022/05/12 11:16:14;;;;;;;0.50;0.50;;;;;;;25.38;27.35;97782.22;4862147;29;20396;-92
2022/05/12 11:19:02;;;;;;;0.52;0.52;;;;;;;25.12;27.66;97782.16;4883258;29;20044;-93
2022/05/12 11:21:30;;;;;;;0.30;0.30;;;;;;;24.31;28.57;97783.94;4881997;29;20060;-91
2022/05/12 11:24:11;;;;;;;0.40;0.40;;;;;;;23.36;29.84;97784.28;4881207;29;20085;-91
2022/05/12 11:26:57;;;;;;;0.40;0.40;;;;;;;23.87;29.50;97772.41;4880771;29;20056;-91
2022/05/12 11:29:44;;;;;;;0.50;0.50;;;;;;;24.11;29.58;97763.84;4881396;29;20536;-92
2022/05/12 11:33:02;;;;;;;0.30;0.30;;;;;;;24.32;29.09;97746.13;4867035;29;20060;-91
2022/05/12 11:35:33;;;;;;;0.47;0.47;;;;;;;24.88;28.89;97773.13;4858432;29;20113;-90
2022/05/12 11:38:06;;;;;;;0.40;0.40;;;;;;;24.24;29.78;97778.28;4857045;29;20029;-92
2022/05/12 11:40:48;;;;;;;0.50;0.50;;;;;;;24.63;29.65;97767.19;4866313;29;20070;-89
2022/05/12 11:46:23;;;;;;;0.30;0.30;;;;;;;23.76;31.29;97744.66;4847491;29;20087;-92
2022/05/12 11:49:09;;;;;;;0.40;0.40;;;;;;;23.90;31.40;97735.88;4862755;29;20053;-91
2022/05/12 11:52:03;;;;;;;0.60;0.60;;;;;;;24.46;30.88;97732.63;4829934;29;20149;-92
2022/05/12 11:54:36;;;;;;;0.40;0.40;;;;;;;25.15;30.06;97727.03;4845077;29;20075;-92
2022/05/12 11:57:05;;;;;;;0.30;0.30;;;;;;;24.68;30.39;97738.50;4830411;29;20620;-91
2022/05/12 11:59:33;;;;;;;0.30;0.30;;;;;;;24.25;31.44;97723.94;4838483;29;20050;-90
2022/05/12 12:02:28;;;;;;;0.30;0.30;;;;;;;23.92;31.88;97717.03;4842092;29;20118;-92
2022/05/12 12:05:04;;;;;;;;;;;;;;;23.39;32.85;97711.19;4817165;29;20050;-91
2022/05/12 12:07:35;;;;;;;0.30;0.30;;;;;;;23.39;32.82;97719.44;4830733;29;19935;-93
2022/05/12 12:10:23;;;;;;;0.40;0.40;;;;;;;23.17;33.46;97720.91;4842280;29;20054;-89
2022/05/12 12:13:37;;;;;;;0.50;0.50;;;;;;;24.22;31.99;97706.97;4885118;29;20065;-94
2022/05/12 12:16:10;;;;;;;0.40;0.40;;;;;;;23.78;32.09;97687.25;4880399;29;20084;-92
2022/05/12 12:18:37;;;;;;;0.30;0.30;;;;;;;23.33;32.88;97707.94;4879525;29;20132;-92
2022/05/12 12:21:42;;;;;;;0.30;0.30;;;;;;;22.54;34.42;97689.56;4881441;29;20041;-92